createdAt,value
2019-04-28T00:00:33.469Z,3.30
2019-04-28T00:01:33.463Z,3.20
2019-04-28T00:02:33.459Z,3.40
2019-04-28T00:03:33.455Z,3.80
2019-04-28T00:04:33.443Z,3.40
2019-04-28T00:05:33.434Z,3.50
2019-04-28T00:06:33.421Z,3.80
2019-04-28T00:07:33.413Z,3.50
2019-04-28T00:08:33.414Z,3.60
2019-04-28T00:09:33.402Z,3.30
2019-04-28T00:10:33.398Z,3.40
2019-04-28T00:11:33.387Z,3.30
2019-04-28T00:12:33.376Z,3.00
2019-04-28T00:13:33.382Z,3.40
2019-04-28T00:14:33.364Z,3.30
2019-04-28T00:15:33.356Z,3.40
2019-04-28T00:16:33.355Z,3.50
2019-04-28T00:17:33.342Z,4.40
2019-04-28T00:18:33.337Z,3.20
2019-04-28T00:19:33.327Z,3.90
2019-04-28T00:20:33.308Z,4.10
2019-04-28T00:21:33.300Z,3.60
2019-04-28T00:22:33.303Z,4.00
2019-04-28T00:23:33.301Z,3.90
2019-04-28T00:24:33.291Z,3.70
2019-04-28T00:25:33.293Z,3.70
2019-04-28T00:26:33.271Z,4.00
2019-04-28T00:27:33.263Z,3.40
2019-04-28T00:28:33.532Z,3.70
2019-04-28T00:29:40.809Z,3.10
2019-04-28T00:30:33.241Z,3.30
2019-04-28T00:31:33.234Z,3.40
2019-04-28T00:32:33.219Z,3.60
2019-04-28T00:33:33.226Z,3.20
2019-04-28T00:34:33.210Z,3.60
2019-04-28T00:35:35.246Z,3.70
2019-04-28T00:36:33.198Z,3.70
2019-04-28T00:37:33.210Z,4.10
2019-04-28T00:38:33.175Z,3.40
2019-04-28T00:39:33.172Z,4.00
2019-04-28T00:40:33.168Z,3.90
2019-04-28T00:41:33.155Z,3.60
2019-04-28T00:42:33.149Z,3.10
2019-04-28T00:43:33.147Z,3.90
2019-04-28T00:44:33.130Z,3.20
2019-04-28T00:45:33.127Z,3.60
2019-04-28T00:46:33.125Z,3.20
2019-04-28T00:47:33.105Z,3.80
2019-04-28T00:48:33.094Z,3.60
2019-04-28T00:49:33.095Z,3.30
2019-04-28T00:50:33.090Z,4.00
2019-04-28T00:51:33.079Z,3.90
2019-04-28T00:52:33.067Z,4.20
2019-04-28T00:53:33.060Z,3.60
2019-04-28T00:54:33.061Z,3.80
2019-04-28T00:55:33.044Z,3.90
2019-04-28T00:56:33.031Z,3.20
2019-04-28T00:57:33.030Z,3.50
2019-04-28T00:58:33.023Z,3.60
2019-04-28T00:59:33.026Z,3.90
2019-04-28T01:00:33.011Z,3.50
2019-04-28T01:01:32.998Z,3.50
2019-04-28T01:02:32.992Z,2.90
2019-04-28T01:03:32.985Z,3.90
2019-04-28T01:04:32.984Z,3.50
2019-04-28T01:05:32.973Z,3.50
2019-04-28T01:06:32.955Z,3.90
2019-04-28T01:07:33.225Z,3.30
2019-04-28T01:08:32.961Z,3.40
2019-04-28T01:09:32.948Z,2.90
2019-04-28T01:10:32.928Z,3.30
2019-04-28T01:11:32.926Z,3.60
2019-04-28T01:12:32.908Z,3.40
2019-04-28T01:13:32.914Z,3.20
2019-04-28T01:14:32.901Z,4.00
2019-04-28T01:15:32.890Z,3.50
2019-04-28T01:16:32.881Z,3.60
2019-04-28T01:17:32.866Z,3.80
2019-04-28T01:18:32.864Z,4.00
2019-04-28T01:19:32.856Z,2.70
2019-04-28T01:20:32.858Z,4.20
2019-04-28T01:21:32.846Z,3.50
2019-04-28T01:22:32.840Z,3.60
2019-04-28T01:23:32.831Z,3.90
2019-04-28T01:24:32.815Z,3.90
2019-04-28T01:25:32.831Z,3.30
2019-04-28T01:26:32.804Z,3.50
2019-04-28T01:27:32.823Z,3.30
2019-04-28T01:28:32.785Z,3.70
2019-04-28T01:29:32.786Z,3.40
2019-04-28T01:30:32.780Z,3.30
2019-04-28T01:31:32.760Z,3.60
2019-04-28T01:32:32.763Z,3.30
2019-04-28T01:33:32.751Z,3.10
2019-04-28T01:34:32.746Z,2.80
2019-04-28T01:35:32.740Z,3.10
2019-04-28T01:36:32.726Z,3.40
2019-04-28T01:37:32.718Z,3.60
2019-04-28T01:38:32.710Z,3.10
2019-04-28T01:39:32.698Z,3.30
2019-04-28T01:40:32.699Z,3.80
2019-04-28T01:41:32.691Z,3.40
2019-04-28T01:42:32.685Z,3.30
2019-04-28T01:43:32.669Z,3.30
2019-04-28T01:44:32.673Z,3.50
2019-04-28T01:45:32.664Z,3.10
2019-04-28T01:46:32.646Z,3.80
2019-04-28T01:47:32.645Z,3.40
2019-04-28T01:48:32.632Z,3.90
2019-04-28T01:49:32.623Z,3.60
2019-04-28T01:50:32.624Z,3.60
2019-04-28T01:51:32.623Z,3.60
2019-04-28T01:52:32.607Z,3.80
2019-04-28T01:53:32.595Z,2.80
2019-04-28T01:54:32.589Z,3.90
2019-04-28T01:55:32.582Z,3.60
2019-04-28T01:56:32.569Z,2.90
2019-04-28T01:57:32.563Z,3.60
2019-04-28T01:58:32.557Z,3.60
2019-04-28T01:59:32.552Z,3.50
2019-04-28T02:00:32.532Z,3.60
2019-04-28T02:01:32.524Z,3.20
2019-04-28T02:02:32.523Z,3.70
2019-04-28T02:03:32.515Z,3.00
2019-04-28T02:04:32.674Z,3.70
2019-04-28T02:05:32.500Z,3.50
2019-04-28T02:06:32.495Z,3.30
2019-04-28T02:07:32.957Z,4.20
2019-04-28T02:08:32.479Z,3.20
2019-04-28T02:09:32.471Z,3.50
2019-04-28T02:10:32.462Z,3.60
2019-04-28T02:11:32.452Z,3.30
2019-04-28T02:12:32.448Z,3.40
2019-04-28T02:13:32.439Z,2.70
2019-04-28T02:14:32.430Z,3.90
2019-04-28T02:15:32.418Z,3.10
2019-04-28T02:16:32.421Z,3.20
2019-04-28T02:17:32.412Z,3.40
2019-04-28T02:18:32.401Z,3.30
2019-04-28T02:19:33.015Z,3.80
2019-04-28T02:20:32.382Z,3.50
2019-04-28T02:21:32.376Z,3.40
2019-04-28T02:22:32.366Z,3.00
2019-04-28T02:23:32.370Z,3.50
2019-04-28T02:24:32.357Z,3.50
2019-04-28T02:25:32.350Z,3.20
2019-04-28T02:26:32.340Z,3.40
2019-04-28T02:27:32.332Z,3.50
2019-04-28T02:28:32.326Z,3.70
2019-04-28T02:29:32.315Z,3.20
2019-04-28T02:30:44.011Z,3.00
2019-04-28T02:31:32.299Z,3.10
2019-04-28T02:32:32.294Z,3.10
2019-04-28T02:33:32.284Z,3.40
2019-04-28T02:34:32.285Z,3.50
2019-04-28T02:35:34.076Z,3.20
2019-04-28T02:36:32.260Z,3.60
2019-04-28T02:37:32.255Z,3.10
2019-04-28T02:38:34.341Z,3.20
2019-04-28T02:39:32.249Z,3.50
2019-04-28T02:40:32.229Z,4.10
2019-04-28T02:41:33.873Z,3.40
2019-04-28T02:42:32.213Z,3.10
2019-04-28T02:43:32.209Z,3.10
2019-04-28T02:44:35.059Z,3.20
2019-04-28T02:45:32.193Z,3.20
2019-04-28T02:46:32.184Z,3.60
2019-04-28T02:47:34.044Z,3.90
2019-04-28T02:48:32.171Z,3.40
2019-04-28T02:49:32.161Z,3.60
2019-04-28T02:50:33.125Z,3.30
2019-04-28T02:51:32.149Z,3.30
2019-04-28T02:52:32.140Z,3.40
2019-04-28T02:53:33.772Z,3.40
2019-04-28T02:54:32.120Z,3.70
2019-04-28T02:55:32.116Z,3.50
2019-04-28T02:56:32.111Z,3.90
2019-04-28T02:57:32.119Z,3.70
2019-04-28T02:58:32.091Z,3.80
2019-04-28T02:59:32.091Z,3.50
2019-04-28T03:00:32.118Z,3.40
2019-04-28T03:01:32.077Z,3.10
2019-04-28T03:02:32.187Z,3.80
2019-04-28T03:03:32.056Z,3.40
2019-04-28T03:04:32.046Z,3.60
2019-04-28T03:05:33.375Z,3.60
2019-04-28T03:06:32.030Z,3.40
2019-04-28T03:07:32.020Z,3.60
2019-04-28T03:08:32.059Z,3.20
2019-04-28T03:09:32.007Z,3.20
2019-04-28T03:10:32.002Z,3.20
2019-04-28T03:11:32.000Z,3.10
2019-04-28T03:12:31.980Z,2.70
2019-04-28T03:13:31.986Z,3.70
2019-04-28T03:14:31.967Z,3.60
2019-04-28T03:15:31.961Z,3.30
2019-04-28T03:16:31.954Z,3.10
2019-04-28T03:17:31.946Z,3.80
2019-04-28T03:18:31.995Z,3.40
2019-04-28T03:19:34.138Z,3.60
2019-04-28T03:20:31.921Z,3.50
2019-04-28T03:21:31.921Z,4.30
2019-04-28T03:22:33.671Z,3.60
2019-04-28T03:23:31.902Z,3.70
2019-04-28T03:24:31.916Z,3.40
2019-04-28T03:25:33.462Z,3.10
2019-04-28T03:26:31.893Z,3.40
2019-04-28T03:27:31.864Z,3.40
2019-04-28T03:28:33.683Z,3.50
2019-04-28T03:29:31.861Z,3.60
2019-04-28T03:30:33.810Z,3.10
2019-04-28T03:32:01.224Z,3.20
2019-04-28T03:32:43.858Z,3.20
2019-04-28T03:33:34.515Z,3.30
2019-04-28T03:34:32.269Z,3.70
2019-04-28T03:35:32.785Z,3.50
2019-04-28T03:36:33.381Z,3.60
2019-04-28T03:37:31.790Z,3.70
2019-04-28T03:38:31.787Z,3.30
2019-04-28T03:39:31.786Z,3.30
2019-04-28T03:40:33.831Z,3.40
2019-04-28T03:41:31.762Z,3.20
2019-04-28T03:42:31.755Z,3.70
2019-04-28T03:43:31.754Z,3.60
2019-04-28T03:44:33.886Z,3.70
2019-04-28T03:45:31.738Z,3.50
2019-04-28T03:46:31.713Z,3.70
2019-04-28T03:47:31.787Z,3.50
2019-04-28T03:48:33.708Z,3.30
2019-04-28T03:49:31.695Z,3.50
2019-04-28T03:50:31.681Z,3.80
2019-04-28T03:51:31.676Z,3.50
2019-04-28T03:52:31.943Z,3.50
2019-04-28T03:53:31.670Z,3.30
2019-04-28T03:54:31.667Z,3.80
2019-04-28T03:55:34.718Z,3.10
2019-04-28T03:56:31.640Z,3.40
2019-04-28T03:57:31.677Z,3.10
2019-04-28T03:58:31.633Z,3.20
2019-04-28T03:59:31.639Z,3.50
2019-04-28T04:00:31.626Z,3.30
2019-04-28T04:01:31.600Z,3.40
2019-04-28T04:02:31.620Z,3.80
2019-04-28T04:03:31.589Z,3.30
2019-04-28T04:04:32.324Z,3.80
2019-04-28T04:05:31.592Z,3.50
2019-04-28T04:06:31.572Z,3.60
2019-04-28T04:07:31.553Z,4.20
2019-04-28T04:08:31.544Z,3.10
2019-04-28T04:09:31.534Z,3.90
2019-04-28T04:10:31.536Z,3.60
2019-04-28T04:11:31.514Z,3.20
2019-04-28T04:12:31.523Z,3.80
2019-04-28T04:13:32.992Z,3.70
2019-04-28T04:14:31.503Z,2.80
2019-04-28T04:15:31.495Z,4.00
2019-04-28T04:16:31.484Z,3.60
2019-04-28T04:17:33.541Z,3.60
2019-04-28T04:18:31.475Z,4.00
2019-04-28T04:19:31.456Z,3.50
2019-04-28T04:20:31.457Z,3.20
2019-04-28T04:21:31.446Z,3.10
2019-04-28T04:22:31.628Z,3.30
2019-04-28T04:23:31.425Z,3.90
2019-04-28T04:24:31.419Z,3.80
2019-04-28T04:25:31.619Z,3.60
2019-04-28T04:26:33.612Z,3.30
2019-04-28T04:27:31.399Z,3.40
2019-04-28T04:28:31.388Z,3.10
2019-04-28T04:29:31.379Z,3.40
2019-04-28T04:30:31.453Z,4.10
2019-04-28T04:31:32.024Z,3.30
2019-04-28T04:32:34.063Z,4.10
2019-04-28T04:33:31.349Z,3.20
2019-04-28T04:34:31.345Z,3.30
2019-04-28T04:35:31.739Z,4.00
2019-04-28T04:36:31.402Z,3.60
2019-04-28T04:37:31.316Z,3.40
2019-04-28T04:38:31.602Z,3.20
2019-04-28T04:39:31.302Z,3.80
2019-04-28T04:40:31.983Z,3.70
2019-04-28T04:41:31.296Z,3.40
2019-04-28T04:42:31.281Z,3.30
2019-04-28T04:43:31.331Z,3.50
2019-04-28T04:44:31.264Z,3.70
2019-04-28T04:45:31.259Z,3.60
2019-04-28T04:46:31.636Z,3.20
2019-04-28T04:47:32.928Z,3.80
2019-04-28T04:48:31.312Z,3.60
2019-04-28T04:49:31.709Z,3.40
2019-04-28T04:50:31.595Z,3.20
2019-04-28T04:51:31.207Z,3.10
2019-04-28T04:52:31.206Z,2.90
2019-04-28T04:53:31.189Z,3.30
2019-04-28T04:54:32.731Z,2.70
2019-04-28T04:55:31.171Z,2.70
2019-04-28T04:56:31.172Z,3.10
2019-04-28T04:57:32.670Z,3.20
2019-04-28T04:58:31.154Z,2.90
2019-04-28T04:59:31.152Z,2.80
2019-04-28T05:00:31.145Z,2.90
2019-04-28T05:01:31.129Z,3.30
2019-04-28T05:02:33.062Z,2.90
2019-04-28T05:03:31.351Z,3.30
2019-04-28T05:04:31.104Z,3.80
2019-04-28T05:05:31.092Z,3.40
2019-04-28T05:06:31.087Z,3.00
2019-04-28T05:07:31.089Z,2.70
2019-04-28T05:08:31.076Z,3.30
2019-04-28T05:09:31.245Z,3.00
2019-04-28T05:10:31.067Z,3.40
2019-04-28T05:11:31.047Z,3.60
2019-04-28T05:12:31.043Z,3.60
2019-04-28T05:13:31.021Z,3.20
2019-04-28T05:14:31.014Z,3.00
2019-04-28T05:15:31.015Z,4.20
2019-04-28T05:16:31.014Z,2.80
2019-04-28T05:17:31.003Z,4.10
2019-04-28T05:18:30.993Z,3.30
2019-04-28T05:19:30.993Z,3.50
2019-04-28T05:20:30.975Z,2.90
2019-04-28T05:21:33.138Z,3.10
2019-04-28T05:22:30.970Z,3.00
2019-04-28T05:23:30.952Z,3.60
2019-04-28T05:24:30.959Z,2.90
2019-04-28T05:25:32.559Z,3.40
2019-04-28T05:26:30.931Z,3.60
2019-04-28T05:27:32.550Z,3.20
2019-04-28T05:28:36.466Z,3.10
2019-04-28T05:29:30.919Z,3.10
2019-04-28T05:30:34.808Z,3.10
2019-04-28T05:31:30.917Z,3.00
2019-04-28T05:32:42.316Z,2.90
2019-04-28T05:33:33.933Z,3.40
2019-04-28T05:34:30.867Z,3.20
2019-04-28T05:35:30.855Z,4.20
2019-04-28T05:36:31.701Z,3.20
2019-04-28T05:37:30.843Z,2.70
2019-04-28T05:38:30.852Z,2.70
2019-04-28T05:39:30.837Z,3.20
2019-04-28T05:40:30.819Z,3.30
2019-04-28T05:41:30.818Z,3.90
2019-04-28T05:42:30.815Z,3.20
2019-04-28T05:43:30.798Z,2.60
2019-04-28T05:44:32.044Z,3.10
2019-04-28T05:45:32.195Z,3.10
2019-04-28T05:46:30.780Z,3.20
2019-04-28T05:47:30.765Z,3.40
2019-04-28T05:48:30.758Z,3.00
2019-04-28T05:49:30.760Z,2.90
2019-04-28T05:50:30.747Z,3.60
2019-04-28T05:51:30.746Z,3.10
2019-04-28T05:52:30.739Z,3.20
2019-04-28T05:53:30.739Z,4.10
2019-04-28T05:54:31.523Z,3.20
2019-04-28T05:55:30.711Z,3.10
2019-04-28T05:56:30.711Z,3.10
2019-04-28T05:57:30.700Z,3.40
2019-04-28T05:58:30.686Z,3.20
2019-04-28T05:59:30.707Z,3.70
2019-04-28T06:00:30.685Z,3.50
2019-04-28T06:01:30.675Z,3.80
2019-04-28T06:02:30.762Z,2.80
2019-04-28T06:03:30.664Z,3.00
2019-04-28T06:04:30.668Z,3.20
2019-04-28T06:05:31.923Z,3.10
2019-04-28T06:06:30.636Z,3.00
2019-04-28T06:07:30.637Z,2.90
2019-04-28T06:08:30.613Z,3.30
2019-04-28T06:09:30.615Z,3.10
2019-04-28T06:10:30.622Z,3.80
2019-04-28T06:11:30.777Z,3.90
2019-04-28T06:12:31.974Z,4.50
2019-04-28T06:13:30.592Z,3.60
2019-04-28T06:14:30.578Z,3.20
2019-04-28T06:15:30.570Z,4.20
2019-04-28T06:16:30.653Z,2.80
2019-04-28T06:17:30.554Z,2.90
2019-04-28T06:18:30.821Z,2.80
2019-04-28T06:19:30.557Z,2.90
2019-04-28T06:20:30.556Z,3.10
2019-04-28T06:21:30.531Z,3.60
2019-04-28T06:22:30.528Z,3.50
2019-04-28T06:23:30.530Z,3.20
2019-04-28T06:24:30.510Z,3.10
2019-04-28T06:25:30.503Z,3.50
2019-04-28T06:26:30.493Z,3.80
2019-04-28T06:27:32.689Z,2.90
2019-04-28T06:28:30.475Z,3.70
2019-04-28T06:29:30.475Z,3.30
2019-04-28T06:30:30.464Z,3.10
2019-04-28T06:31:30.459Z,3.00
2019-04-28T06:32:30.457Z,3.20
2019-04-28T06:33:30.436Z,2.70
2019-04-28T06:34:30.457Z,3.20
2019-04-28T06:35:30.427Z,4.20
2019-04-28T06:36:30.422Z,3.20
2019-04-28T06:37:30.419Z,3.70
2019-04-28T06:38:30.409Z,3.30
2019-04-28T06:39:30.405Z,3.50
2019-04-28T06:40:30.395Z,3.60
2019-04-28T06:41:30.404Z,3.00
2019-04-28T06:42:30.381Z,3.20
2019-04-28T06:43:30.386Z,3.00
2019-04-28T06:44:30.374Z,3.30
2019-04-28T06:45:30.370Z,3.50
2019-04-28T06:46:30.361Z,2.90
2019-04-28T06:47:30.364Z,3.20
2019-04-28T06:48:30.354Z,3.30
2019-04-28T06:49:30.343Z,3.40
2019-04-28T06:50:30.324Z,3.20
2019-04-28T06:51:30.327Z,3.60
2019-04-28T06:52:30.331Z,3.90
2019-04-28T06:53:30.323Z,3.20
2019-04-28T06:54:30.312Z,3.60
2019-04-28T06:55:30.301Z,3.10
2019-04-28T06:56:30.306Z,3.40
2019-04-28T06:57:30.296Z,3.40
2019-04-28T06:58:30.285Z,3.40
2019-04-28T06:59:30.315Z,3.20
2019-04-28T07:00:30.281Z,3.20
2019-04-28T07:01:30.262Z,3.20
2019-04-28T07:02:30.254Z,3.40
2019-04-28T07:03:30.255Z,3.50
2019-04-28T07:04:30.244Z,3.40
2019-04-28T07:05:30.236Z,3.20
2019-04-28T07:06:30.230Z,3.00
2019-04-28T07:07:30.230Z,3.40
2019-04-28T07:08:30.210Z,3.20
2019-04-28T07:09:30.268Z,3.20
2019-04-28T07:10:30.204Z,2.90
2019-04-28T07:11:30.206Z,3.40
2019-04-28T07:12:30.204Z,3.60
2019-04-28T07:13:30.203Z,2.60
2019-04-28T07:14:30.196Z,2.70
2019-04-28T07:15:30.193Z,3.10
2019-04-28T07:16:30.170Z,3.10
2019-04-28T07:17:30.164Z,3.30
2019-04-28T07:18:30.166Z,3.10
2019-04-28T07:19:30.167Z,3.00
2019-04-28T07:20:30.149Z,2.90
2019-04-28T07:21:30.144Z,3.20
2019-04-28T07:22:30.140Z,2.70
2019-04-28T07:23:30.135Z,2.90
2019-04-28T07:24:30.143Z,3.50
2019-04-28T07:25:30.126Z,3.90
2019-04-28T07:26:30.127Z,3.10
2019-04-28T07:27:30.123Z,3.30
2019-04-28T07:28:30.113Z,2.80
2019-04-28T07:29:30.101Z,2.80
2019-04-28T07:30:30.103Z,2.50
2019-04-28T07:31:30.105Z,3.10
2019-04-28T07:32:30.097Z,2.80
2019-04-28T07:33:35.826Z,3.30
2019-04-28T07:34:30.088Z,2.80
2019-04-28T07:35:30.091Z,2.70
2019-04-28T07:36:30.087Z,2.90
2019-04-28T07:37:30.081Z,3.30
2019-04-28T07:38:30.081Z,2.80
2019-04-28T07:39:30.068Z,3.20
2019-04-28T07:40:30.068Z,2.50
2019-04-28T07:41:30.064Z,2.30
2019-04-28T07:42:30.055Z,2.30
2019-04-28T07:43:30.059Z,2.40
2019-04-28T07:44:30.062Z,2.90
2019-04-28T07:45:30.058Z,2.90
2019-04-28T07:46:30.053Z,2.80
2019-04-28T07:47:30.052Z,2.60
2019-04-28T07:48:30.045Z,2.80
2019-04-28T07:49:30.040Z,2.40
2019-04-28T07:50:30.042Z,2.60
2019-04-28T07:51:30.043Z,2.40
2019-04-28T07:52:30.037Z,2.60
2019-04-28T07:53:30.032Z,2.80
2019-04-28T07:54:30.033Z,2.10
2019-04-28T07:55:30.030Z,2.40
2019-04-28T07:56:30.030Z,2.60
2019-04-28T07:57:30.030Z,2.60
2019-04-28T07:58:30.028Z,2.50
2019-04-28T07:59:30.027Z,2.90
2019-04-28T08:00:30.022Z,2.60
2019-04-28T08:01:30.019Z,2.40
2019-04-28T08:02:30.018Z,2.40
2019-04-28T08:03:30.018Z,2.50
2019-04-28T08:04:30.018Z,2.40
2019-04-28T08:05:30.014Z,2.30
2019-04-28T08:06:30.012Z,2.70
2019-04-28T08:07:30.019Z,2.70
2019-04-28T08:08:30.012Z,2.60
2019-04-28T08:09:30.001Z,2.30
2019-04-28T08:10:30.007Z,2.20
2019-04-28T08:11:30.003Z,2.20
2019-04-28T08:12:30.000Z,2.60
2019-04-28T08:13:30.002Z,2.00
2019-04-28T08:14:29.999Z,2.00
2019-04-28T08:15:29.988Z,3.00
2019-04-28T08:16:29.998Z,2.30
2019-04-28T08:17:29.994Z,2.40
2019-04-28T08:18:31.654Z,2.50
2019-04-28T08:19:29.994Z,2.10
2019-04-28T08:20:29.989Z,2.10
2019-04-28T08:21:29.996Z,1.90
2019-04-28T08:22:29.992Z,2.10
2019-04-28T08:23:29.989Z,2.20
2019-04-28T08:24:29.990Z,2.60
2019-04-28T08:25:29.986Z,2.10
2019-04-28T08:26:29.984Z,2.50
2019-04-28T08:27:29.979Z,2.50
2019-04-28T08:28:29.983Z,2.40
2019-04-28T08:29:29.993Z,2.10
2019-04-28T08:30:29.976Z,2.00
2019-04-28T08:31:29.977Z,3.10
2019-04-28T08:32:29.978Z,2.00
2019-04-28T08:33:29.976Z,2.20
2019-04-28T08:34:29.974Z,2.20
2019-04-28T08:35:29.976Z,2.30
2019-04-28T08:36:29.970Z,2.40
2019-04-28T08:37:29.980Z,2.40
2019-04-28T08:38:44.635Z,2.10
2019-04-28T08:39:29.961Z,3.00
2019-04-28T08:40:32.256Z,2.50
2019-04-28T08:41:29.994Z,2.70
2019-04-28T08:44:02.110Z,2.20
2019-04-28T08:45:02.090Z,2.20
2019-04-28T08:46:56.495Z,2.50
2019-04-28T08:47:58.043Z,2.60
2019-04-28T08:49:50.870Z,2.30
2019-04-28T08:50:53.414Z,2.30
2019-04-28T08:51:50.835Z,2.40
2019-04-28T08:52:50.844Z,2.20
2019-04-28T08:53:50.839Z,1.90
2019-04-28T08:54:50.832Z,2.20
2019-04-28T08:55:50.833Z,2.30
2019-04-28T08:56:50.840Z,2.00
2019-04-28T08:57:50.828Z,2.50
2019-04-28T08:58:50.826Z,2.40
2019-04-28T08:59:50.843Z,2.20
2019-04-28T09:00:50.821Z,2.20
2019-04-28T09:01:50.824Z,2.20
2019-04-28T09:02:50.827Z,2.10
2019-04-28T09:03:50.817Z,2.60
2019-04-28T09:04:50.825Z,2.60
2019-04-28T09:05:51.523Z,2.40
2019-04-28T09:06:50.813Z,2.70
2019-04-28T09:07:50.815Z,2.20
2019-04-28T09:08:50.809Z,2.50
2019-04-28T09:09:50.806Z,2.60
2019-04-28T09:10:50.808Z,2.60
2019-04-28T09:11:51.370Z,2.20
2019-04-28T09:12:50.820Z,2.40
2019-04-28T09:13:50.824Z,2.30
2019-04-28T09:14:50.833Z,1.90
2019-04-28T09:15:51.894Z,1.90
2019-04-28T09:16:58.846Z,2.20
2019-04-28T09:17:51.055Z,2.10
2019-04-28T09:18:53.973Z,2.20
2019-04-28T09:19:50.799Z,2.20
2019-04-28T09:20:55.933Z,2.30
2019-04-28T09:21:50.791Z,2.70
2019-04-28T09:22:50.776Z,2.10
2019-04-28T09:23:50.770Z,2.00
2019-04-28T09:24:50.779Z,2.20
2019-04-28T09:25:50.764Z,2.10
2019-04-28T09:26:50.761Z,2.20
2019-04-28T09:27:50.763Z,2.10
2019-04-28T09:28:50.757Z,2.00
2019-04-28T09:29:50.752Z,2.30
2019-04-28T09:30:50.749Z,2.20
2019-04-28T09:31:53.567Z,2.30
2019-04-28T09:32:59.220Z,2.30
2019-04-28T09:33:51.054Z,2.20
2019-04-28T09:34:51.772Z,2.50
2019-04-28T09:35:50.731Z,2.00
2019-04-28T09:36:50.742Z,2.10
2019-04-28T09:37:50.730Z,2.30
2019-04-28T09:38:50.729Z,1.90
2019-04-28T09:39:50.731Z,1.80
2019-04-28T09:40:50.746Z,1.90
2019-04-28T09:41:50.716Z,2.30
2019-04-28T09:42:50.721Z,2.00
2019-04-28T09:43:50.725Z,2.30
2019-04-28T09:44:50.716Z,2.10
2019-04-28T09:45:50.711Z,1.80
2019-04-28T09:46:50.703Z,2.10
2019-04-28T09:47:50.703Z,1.80
2019-04-28T09:48:50.699Z,2.10
2019-04-28T09:49:50.694Z,1.70
2019-04-28T09:50:50.687Z,1.80
2019-04-28T09:51:50.701Z,2.10
2019-04-28T09:52:50.689Z,2.40
2019-04-28T09:53:50.687Z,1.70
2019-04-28T09:54:50.685Z,1.90
2019-04-28T09:55:50.691Z,1.60
2019-04-28T09:56:56.757Z,2.10
2019-04-28T09:57:50.668Z,2.00
2019-04-28T09:58:50.662Z,1.80
2019-04-28T09:59:50.668Z,2.00
2019-04-28T10:00:50.666Z,1.70
2019-04-28T10:01:50.659Z,1.70
2019-04-28T10:02:50.654Z,1.70
2019-04-28T10:03:50.657Z,1.80
2019-04-28T10:04:50.652Z,1.90
2019-04-28T10:05:50.653Z,1.70
2019-04-28T10:06:50.643Z,1.60
2019-04-28T10:07:50.650Z,1.90
2019-04-28T10:08:50.655Z,1.60
2019-04-28T10:09:50.627Z,1.90
2019-04-28T10:10:50.630Z,1.30
2019-04-28T10:11:50.628Z,1.50
2019-04-28T10:12:50.624Z,1.60
2019-04-28T10:13:50.626Z,1.30
2019-04-28T10:14:50.618Z,1.40
2019-04-28T10:15:50.610Z,1.60
2019-04-28T10:16:50.621Z,1.50
2019-04-28T10:17:50.602Z,1.50
2019-04-28T10:18:50.629Z,1.50
2019-04-28T10:19:50.592Z,1.40
2019-04-28T10:20:50.597Z,1.50
2019-04-28T10:21:50.576Z,1.60
2019-04-28T10:22:50.574Z,1.60
2019-04-28T10:23:53.279Z,1.40
2019-04-28T10:24:57.009Z,1.60
2019-04-28T10:26:17.280Z,1.30
2019-04-28T10:27:00.493Z,1.70
2019-04-28T10:27:50.556Z,1.80
2019-04-28T10:28:53.840Z,1.80
2019-04-28T10:29:54.725Z,1.70
2019-04-28T10:31:03.713Z,1.90
2019-04-28T10:31:51.377Z,1.70
2019-04-28T10:32:52.114Z,1.40
2019-04-28T10:33:55.808Z,1.40
2019-04-28T10:34:54.993Z,1.60
2019-04-28T10:35:50.525Z,1.50
2019-04-28T10:36:50.528Z,1.40
2019-04-28T10:37:50.516Z,1.80
2019-04-28T10:38:50.507Z,1.40
2019-04-28T10:39:50.497Z,1.70
2019-04-28T10:40:50.502Z,1.60
2019-04-28T10:41:50.496Z,1.70
2019-04-28T10:42:50.485Z,1.60
2019-04-28T10:43:50.474Z,1.40
2019-04-28T10:44:50.482Z,1.40
2019-04-28T10:45:50.474Z,2.00
2019-04-28T10:46:50.470Z,1.70
2019-04-28T10:47:50.461Z,1.70
2019-04-28T10:48:50.458Z,1.40
2019-04-28T10:49:50.964Z,1.40
2019-04-28T10:50:50.458Z,1.30
2019-04-28T10:51:59.163Z,1.50
2019-04-28T10:52:50.451Z,1.40
2019-04-28T10:53:50.439Z,1.40
2019-04-28T10:54:50.428Z,1.50
2019-04-28T10:55:50.421Z,1.30
2019-04-28T10:56:50.416Z,1.40
2019-04-28T10:57:50.408Z,1.40
2019-04-28T10:58:50.411Z,1.30
2019-04-28T10:59:50.424Z,1.30
2019-04-28T11:00:50.408Z,1.30
2019-04-28T11:01:50.432Z,1.20
2019-04-28T11:02:50.385Z,1.20
2019-04-28T11:03:50.379Z,1.20
2019-04-28T11:04:50.381Z,1.30
2019-04-28T11:05:50.444Z,1.30
2019-04-28T11:06:50.375Z,1.60
2019-04-28T11:07:50.381Z,1.40
2019-04-28T11:08:50.364Z,1.30
2019-04-28T11:09:50.359Z,1.20
2019-04-28T11:10:50.365Z,1.10
2019-04-28T11:11:50.357Z,1.20
2019-04-28T11:12:50.357Z,1.30
2019-04-28T11:13:50.350Z,1.40
2019-04-28T11:14:50.337Z,1.40
2019-04-28T11:15:50.356Z,1.50
2019-04-28T11:16:50.334Z,1.60
2019-04-28T11:17:50.336Z,1.50
2019-04-28T11:18:50.331Z,1.70
2019-04-28T11:19:50.337Z,1.40
2019-04-28T11:20:50.331Z,1.40
2019-04-28T11:21:50.308Z,1.60
2019-04-28T11:22:50.315Z,1.50
2019-04-28T11:23:50.309Z,1.30
2019-04-28T11:24:50.636Z,1.20
2019-04-28T11:25:50.312Z,1.20
2019-04-28T11:26:50.291Z,1.40
2019-04-28T11:27:50.339Z,1.20
2019-04-28T11:28:50.285Z,1.20
2019-04-28T11:29:50.301Z,1.30
2019-04-28T11:30:50.278Z,1.30
2019-04-28T11:31:50.292Z,1.30
2019-04-28T11:32:50.278Z,1.30
2019-04-28T11:33:50.296Z,1.10
2019-04-28T11:34:50.283Z,1.50
2019-04-28T11:35:50.278Z,1.20
2019-04-28T11:36:50.270Z,1.30
2019-04-28T11:37:50.261Z,1.70
2019-04-28T11:38:50.277Z,1.30
2019-04-28T11:39:50.252Z,1.50
2019-04-28T11:40:50.253Z,1.40
2019-04-28T11:41:50.258Z,1.40
2019-04-28T11:42:50.248Z,1.30
2019-04-28T11:43:50.312Z,1.50
2019-04-28T11:44:50.245Z,1.90
2019-04-28T11:45:50.257Z,1.50
2019-04-28T11:46:50.237Z,1.70
2019-04-28T11:47:50.230Z,1.90
2019-04-28T11:48:50.226Z,1.70
2019-04-28T11:49:50.233Z,1.60
2019-04-28T11:50:50.230Z,1.80
2019-04-28T11:51:50.223Z,1.80
2019-04-28T11:52:50.228Z,1.70
2019-04-28T11:53:50.207Z,1.60
2019-04-28T11:54:50.217Z,1.70
2019-04-28T11:55:50.206Z,1.70
2019-04-28T11:56:50.208Z,2.00
2019-04-28T11:57:50.211Z,1.80
2019-04-28T11:58:50.208Z,1.50
2019-04-28T11:59:50.202Z,1.80
2019-04-28T12:00:50.211Z,1.70
2019-04-28T12:01:50.187Z,1.40
2019-04-28T12:02:50.197Z,1.60
2019-04-28T12:03:50.211Z,1.60
2019-04-28T12:04:51.012Z,1.50
2019-04-28T12:05:50.180Z,1.50
2019-04-28T12:06:50.183Z,1.50
2019-04-28T12:07:50.193Z,1.50
2019-04-28T12:08:50.189Z,1.90
2019-04-28T12:09:50.168Z,1.50
2019-04-28T12:10:50.214Z,1.40
2019-04-28T12:11:50.289Z,1.40
2019-04-28T12:12:50.188Z,1.50
2019-04-28T12:13:50.172Z,1.60
2019-04-28T12:14:50.162Z,1.40
2019-04-28T12:15:50.155Z,1.60
2019-04-28T12:16:50.169Z,1.80
2019-04-28T12:17:50.167Z,1.60
2019-04-28T12:18:50.170Z,1.50
2019-04-28T12:19:50.142Z,2.50
2019-04-28T12:20:50.142Z,2.70
2019-04-28T12:21:50.152Z,1.90
2019-04-28T12:22:50.177Z,1.70
2019-04-28T12:23:50.152Z,1.50
2019-04-28T12:24:50.150Z,1.60
2019-04-28T12:25:50.132Z,1.70
2019-04-28T12:26:50.140Z,1.60
2019-04-28T12:27:50.130Z,1.50
2019-04-28T12:28:50.128Z,1.50
2019-04-28T12:29:50.126Z,1.60
2019-04-28T12:30:51.737Z,1.50
2019-04-28T12:31:50.123Z,1.70
2019-04-28T12:32:50.125Z,1.60
2019-04-28T12:33:50.112Z,1.70
2019-04-28T12:34:50.120Z,1.80
2019-04-28T12:35:50.112Z,1.60
2019-04-28T12:36:50.164Z,1.40
2019-04-28T12:37:50.095Z,1.40
2019-04-28T12:38:50.091Z,1.60
2019-04-28T12:39:50.109Z,1.40
2019-04-28T12:40:50.088Z,1.80
2019-04-28T12:41:50.107Z,1.50
2019-04-28T12:42:50.083Z,1.40
2019-04-28T12:43:50.077Z,1.50
2019-04-28T12:44:50.550Z,1.50
2019-04-28T12:45:50.071Z,1.40
2019-04-28T12:46:50.074Z,1.20
2019-04-28T12:47:50.069Z,1.30
2019-04-28T12:48:50.065Z,1.50
2019-04-28T12:49:50.065Z,1.20
2019-04-28T12:50:50.067Z,1.30
2019-04-28T12:51:50.059Z,1.20
2019-04-28T12:52:50.057Z,1.60
2019-04-28T12:53:50.056Z,1.20
2019-04-28T12:54:50.077Z,1.20
2019-04-28T12:55:50.057Z,1.20
2019-04-28T12:56:50.051Z,1.20
2019-04-28T12:57:50.053Z,1.20
2019-04-28T12:58:50.052Z,1.20
2019-04-28T12:59:52.979Z,1.30
2019-04-28T13:00:50.043Z,1.20
2019-04-28T13:01:50.047Z,4.60
2019-04-28T13:02:50.038Z,16.90
2019-04-28T13:03:50.045Z,3.20
2019-04-28T13:04:50.034Z,2.00
2019-04-28T13:06:00.734Z,1.40
2019-04-28T13:06:50.025Z,1.30
2019-04-28T13:07:50.035Z,1.30
2019-04-28T13:08:50.025Z,1.20
2019-04-28T13:09:50.020Z,1.10
2019-04-28T13:10:50.007Z,1.20
2019-04-28T13:11:50.011Z,1.30
2019-04-28T13:12:50.003Z,1.30
2019-04-28T13:13:50.015Z,1.20
2019-04-28T13:14:50.005Z,1.30
2019-04-28T13:15:50.002Z,1.10
2019-04-28T13:16:50.011Z,1.30
2019-04-28T13:17:49.988Z,1.30
2019-04-28T13:18:50.020Z,1.20
2019-04-28T13:19:49.993Z,1.40
2019-04-28T13:20:49.990Z,1.30
2019-04-28T13:21:49.990Z,1.40